Time;durP1;ratioP1;P1;durP2;ratioP2;P2;SDS_P1;SDS_P2;PMS_P1;PMS_P2;Temp;Humidity;BMP_temperature;BMP_pressure;BME280_temperature;BME280_humidity;BME280_pressure;Samples;Min_cycle;Max_cycle;Signal;HPM_P1;HPM_P2
2022/07/21 00:01:44;;;;;;;11.20;10.13;;;;;;;;;;5281727;28;20033;-81
2022/07/21 00:04:15;;;;;;;11.73;10.63;;;;;;;;;;5279614;28;20366;-81
2022/07/21 00:06:46;;;;;;;11.30;10.32;;;;;;;;;;5280560;28;20052;-81
2022/07/21 00:09:18;;;;;;;11.00;9.90;;;;;;;;;;5286061;28;20136;-80
2022/07/21 00:11:49;;;;;;;11.23;10.13;;;;;;;;;;5258330;28;20021;-80
2022/07/21 00:14:20;;;;;;;10.90;9.80;;;;;;;;;;5284095;28;20328;-80
2022/07/21 00:16:51;;;;;;;11.97;10.87;;;;;;;;;;5273682;28;20311;-80
2022/07/21 00:19:22;;;;;;;11.95;10.85;;;;;;;;;;5274960;28;20706;-80
2022/07/21 00:21:54;;;;;;;11.47;10.33;;;;;;;;;;5279511;28;20033;-81
2022/07/21 00:24:25;;;;;;;11.13;10.18;;;;;;;;;;5267807;28;20370;-81
2022/07/21 00:26:56;;;;;;;11.27;10.20;;;;;;;;;;5282134;28;20381;-81
2022/07/21 00:29:27;;;;;;;12.20;10.80;;;;;;;;;;5283936;28;20041;-81
2022/07/21 00:32:00;;;;;;;12.33;11.13;;;;;;;;;;5289907;28;20025;-81
2022/07/21 00:34:31;;;;;;;12.57;11.50;;;;;;;;;;5284393;28;20251;-80
2022/07/21 00:37:03;;;;;;;12.32;11.23;;;;;;;;;;5281984;28;20486;-80
2022/07/21 00:39:34;;;;;;;12.77;11.53;;;;;;;;;;5291799;28;20029;-80
2022/07/21 00:42:05;;;;;;;12.45;11.35;;;;;;;;;;5287216;28;20891;-80
2022/07/21 00:44:37;;;;;;;12.32;11.13;;;;;;;;;;5291436;28;20427;-80
2022/07/21 00:47:09;;;;;;;13.07;11.73;;;;;;;;;;5288964;28;20033;-80
2022/07/21 00:49:42;;;;;;;13.63;12.07;;;;;;;;;;5298888;28;20406;-80
2022/07/21 00:52:13;;;;;;;12.68;11.43;;;;;;;;;;5278876;28;20025;-80
2022/07/21 00:54:44;;;;;;;12.67;11.60;;;;;;;;;;5268452;28;20088;-81
2022/07/21 00:57:16;;;;;;;13.10;12.00;;;;;;;;;;5291186;28;20279;-81
2022/07/21 00:59:47;;;;;;;13.10;11.90;;;;;;;;;;5291052;28;20026;-81
2022/07/21 01:02:18;;;;;;;14.53;13.23;;;;;;;;;;5285076;28;20422;-81
2022/07/21 01:04:49;;;;;;;13.80;12.47;;;;;;;;;;5285380;28;20313;-81
2022/07/21 01:07:20;;;;;;;13.17;11.97;;;;;;;;;;5279335;28;20393;-81
2022/07/21 01:09:52;;;;;;;13.17;12.03;;;;;;;;;;5291367;28;20274;-81
2022/07/21 01:12:23;;;;;;;14.00;12.70;;;;;;;;;;5275223;28;20631;-81
2022/07/21 01:14:54;;;;;;;14.38;13.07;;;;;;;;;;5284288;28;20286;-81
2022/07/21 01:17:26;;;;;;;13.98;12.60;;;;;;;;;;5288628;28;20036;-81
2022/07/21 01:19:57;;;;;;;15.38;13.82;;;;;;;;;;5290087;28;20043;-81
2022/07/21 01:22:28;;;;;;;16.67;14.98;;;;;;;;;;5265298;28;20045;-81
2022/07/21 01:25:00;;;;;;;15.45;13.85;;;;;;;;;;5292124;28;20037;-81
2022/07/21 01:27:31;;;;;;;15.20;13.80;;;;;;;;;;5291434;28;20504;-81
2022/07/21 01:30:03;;;;;;;16.43;14.83;;;;;;;;;;5274623;28;20310;-81
2022/07/21 01:32:35;;;;;;;15.73;14.43;;;;;;;;;;5268655;28;20110;-81
2022/07/21 01:35:08;;;;;;;15.98;14.38;;;;;;;;;;5278903;28;20033;-81
2022/07/21 01:37:41;;;;;;;16.20;14.65;;;;;;;;;;5285404;28;20040;-81
2022/07/21 01:43:03;;;;;;;15.75;13.85;;;;;;;;;;5280456;28;20033;-81
2022/07/21 01:45:35;;;;;;;16.17;14.70;;;;;;;;;;5270658;28;20474;-81
2022/07/21 01:48:06;;;;;;;15.70;14.18;;;;;;;;;;5292800;28;20170;-81
2022/07/21 01:50:37;;;;;;;16.37;14.77;;;;;;;;;;5292710;28;20037;-81
2022/07/21 01:53:08;;;;;;;16.77;15.05;;;;;;;;;;5288900;28;20037;-81
2022/07/21 01:55:40;;;;;;;16.60;15.00;;;;;;;;;;5291240;28;20028;-80
2022/07/21 01:58:11;;;;;;;15.97;14.27;;;;;;;;;;5288790;28;20271;-80
2022/07/21 02:00:42;;;;;;;16.67;14.97;;;;;;;;;;5294752;28;20064;-79
2022/07/21 02:03:13;;;;;;;16.92;15.05;;;;;;;;;;5279267;28;20040;-80
2022/07/21 02:05:44;;;;;;;16.10;14.70;;;;;;;;;;5283872;28;20744;-80
2022/07/21 02:08:15;;;;;;;17.00;15.40;;;;;;;;;;5292652;28;20388;-80
2022/07/21 02:10:47;;;;;;;16.37;14.77;;;;;;;;;;5289831;28;20112;-80
2022/07/21 02:13:19;;;;;;;17.10;15.40;;;;;;;;;;5277603;28;20536;-80
2022/07/21 02:15:50;;;;;;;16.45;14.80;;;;;;;;;;5275488;28;20025;-80
2022/07/21 02:18:21;;;;;;;17.58;15.60;;;;;;;;;;5285461;28;20100;-80
2022/07/21 02:20:53;;;;;;;18.40;16.53;;;;;;;;;;5282185;28;20116;-80
2022/07/21 02:23:24;;;;;;;16.38;14.68;;;;;;;;;;5293698;28;20283;-80
2022/07/21 02:25:56;;;;;;;17.27;14.43;;;;;;;;;;5285743;28;20127;-79
2022/07/21 02:28:28;;;;;;;16.60;14.98;;;;;;;;;;5287927;28;20396;-79
2022/07/21 02:30:59;;;;;;;17.17;15.57;;;;;;;;;;5284194;28;20025;-79
2022/07/21 02:33:30;;;;;;;18.30;16.50;;;;;;;;;;5288790;28;20676;-79
2022/07/21 02:36:02;;;;;;;17.10;15.50;;;;;;;;;;5290321;28;20035;-79
2022/07/21 02:38:33;;;;;;;18.30;16.48;;;;;;;;;;5289759;28;20246;-79
2022/07/21 02:41:04;;;;;;;17.80;16.02;;;;;;;;;;5286743;28;20107;-79
2022/07/21 02:43:35;;;;;;;17.92;16.25;;;;;;;;;;5282118;28;20048;-79
2022/07/21 02:46:07;;;;;;;18.73;16.93;;;;;;;;;;5289327;28;20326;-79
2022/07/21 02:48:38;;;;;;;19.27;17.27;;;;;;;;;;5283167;28;20677;-79
2022/07/21 02:51:09;;;;;;;18.63;16.93;;;;;;;;;;5285814;28;20283;-79
2022/07/21 02:53:40;;;;;;;17.93;16.27;;;;;;;;;;5291102;28;20823;-79
2022/07/21 02:56:11;;;;;;;20.25;18.20;;;;;;;;;;5285268;28;20626;-80
2022/07/21 02:58:43;;;;;;;19.40;17.40;;;;;;;;;;5287091;28;20101;-80
2022/07/21 03:01:14;;;;;;;20.07;18.00;;;;;;;;;;5277416;28;20280;-80
2022/07/21 03:03:45;;;;;;;20.40;18.48;;;;;;;;;;5287571;28;20276;-80
2022/07/21 03:06:16;;;;;;;19.25;17.33;;;;;;;;;;5295180;28;20174;-79
2022/07/21 03:08:48;;;;;;;19.83;17.83;;;;;;;;;;5291770;28;20041;-80
2022/07/21 03:11:19;;;;;;;19.87;17.03;;;;;;;;;;5274797;28;20040;-80
2022/07/21 03:13:50;;;;;;;20.60;18.57;;;;;;;;;;5277922;28;20349;-80
2022/07/21 03:16:21;;;;;;;19.43;17.53;;;;;;;;;;5280806;28;20029;-80
2022/07/21 03:18:52;;;;;;;18.43;16.57;;;;;;;;;;5280225;28;20052;-80
2022/07/21 03:21:24;;;;;;;18.75;16.83;;;;;;;;;;5279473;28;20307;-80
2022/07/21 03:23:55;;;;;;;19.38;17.38;;;;;;;;;;5283607;28;20433;-80
2022/07/21 03:26:26;;;;;;;20.43;18.20;;;;;;;;;;5284530;28;20079;-80
2022/07/21 03:28:57;;;;;;;19.23;17.40;;;;;;;;;;5278281;28;20068;-80
2022/07/21 03:31:28;;;;;;;19.40;17.53;;;;;;;;;;5275906;28;20639;-80
2022/07/21 03:34:00;;;;;;;17.97;16.07;;;;;;;;;;5278853;28;20439;-80
2022/07/21 03:36:31;;;;;;;19.20;17.20;;;;;;;;;;5277210;28;20112;-80
2022/07/21 03:39:02;;;;;;;18.67;16.77;;;;;;;;;;5294466;28;20028;-79
2022/07/21 03:41:33;;;;;;;19.23;16.38;;;;;;;;;;5278404;28;20039;-81
2022/07/21 03:44:04;;;;;;;21.53;16.13;;;;;;;;;;5273465;28;20112;-83
2022/07/21 03:46:38;;;;;;;19.27;17.47;;;;;;;;;;5280883;28;20028;-83
2022/07/21 03:49:09;;;;;;;17.75;15.95;;;;;;;;;;5265189;28;20405;-83
2022/07/21 03:51:41;;;;;;;18.38;16.48;;;;;;;;;;5282229;28;20029;-82
2022/07/21 03:54:12;;;;;;;19.07;16.73;;;;;;;;;;5285704;28;20090;-82
2022/07/21 03:56:43;;;;;;;17.80;15.90;;;;;;;;;;5287066;28;20115;-83
2022/07/21 03:59:14;;;;;;;18.45;16.52;;;;;;;;;;5268784;28;20400;-82
2022/07/21 04:01:45;;;;;;;16.93;15.40;;;;;;;;;;5263519;28;20430;-83
2022/07/21 04:04:17;;;;;;;19.17;17.10;;;;;;;;;;5276887;28;20388;-83
2022/07/21 04:06:48;;;;;;;17.40;15.70;;;;;;;;;;5292315;28;20295;-81
2022/07/21 04:09:19;;;;;;;16.60;15.00;;;;;;;;;;5284551;28;20032;-80
2022/07/21 04:11:50;;;;;;;16.93;15.23;;;;;;;;;;5282919;28;20318;-82
2022/07/21 04:14:22;;;;;;;17.35;14.55;;;;;;;;;;5287622;28;20325;-82
2022/07/21 04:16:53;;;;;;;16.40;14.70;;;;;;;;;;5283406;28;20778;-83
2022/07/21 04:19:24;;;;;;;17.40;15.37;;;;;;;;;;5286917;28;20053;-84
2022/07/21 04:21:55;;;;;;;17.65;15.82;;;;;;;;;;5287102;28;20276;-85
2022/07/21 04:24:26;;;;;;;19.70;16.37;;;;;;;;;;5276394;28;20037;-85
2022/07/21 04:26:58;;;;;;;18.57;16.67;;;;;;;;;;5270966;28;20029;-85
2022/07/21 04:29:29;;;;;;;19.27;17.20;;;;;;;;;;5285733;28;20035;-86
2022/07/21 04:32:00;;;;;;;20.27;17.03;;;;;;;;;;5281817;28;20105;-84
2022/07/21 04:34:31;;;;;;;18.70;16.37;;;;;;;;;;5290929;28;20251;-84
2022/07/21 04:37:02;;;;;;;20.35;16.98;;;;;;;;;;5295702;28;20275;-86
2022/07/21 04:39:34;;;;;;;17.70;15.80;;;;;;;;;;5264841;28;20037;-83
2022/07/21 04:42:05;;;;;;;19.92;17.48;;;;;;;;;;5296982;28;20258;-83
2022/07/21 04:44:36;;;;;;;17.65;15.68;;;;;;;;;;5288576;28;20112;-83
2022/07/21 04:47:13;;;;;;;20.60;18.33;;;;;;;;;;5289335;28;20025;-83
2022/07/21 04:49:44;;;;;;;;;;;;;;;;;;5281585;28;20284;-83
2022/07/21 04:52:20;;;;;;;21.97;17.03;;;;;;;;;;5285566;28;19920;-83
2022/07/21 04:54:51;;;;;;;18.83;16.63;;;;;;;;;;5284138;28;20029;-83
2022/07/21 04:57:22;;;;;;;23.02;17.88;;;;;;;;;;5277972;28;20036;-82
2022/07/21 05:00:05;;;;;;;19.95;17.95;;;;;;;;;;5291302;28;20024;-84
2022/07/21 05:02:36;;;;;;;20.23;17.90;;;;;;;;;;5279888;28;20041;-84
2022/07/21 05:05:08;;;;;;;23.45;18.75;;;;;;;;;;5286478;28;20480;-83
2022/07/21 05:07:45;;;;;;;23.60;18.63;;;;;;;;;;5287359;28;20052;-84
2022/07/21 05:10:18;;;;;;;21.27;17.73;;;;;;;;;;5293388;28;20119;-83
2022/07/21 05:12:49;;;;;;;23.58;17.70;;;;;;;;;;5268313;28;20037;-83
2022/07/21 05:15:23;;;;;;;20.42;17.85;;;;;;;;;;5282513;28;20474;-87
2022/07/21 05:18:17;;;;;;;18.45;16.65;;;;;;;;;;5267116;28;20025;-87
2022/07/21 05:20:56;;;;;;;17.85;15.38;;;;;;;;;;5290856;28;20468;-87
2022/07/21 05:23:39;;;;;;;16.88;14.32;;;;;;;;;;5286819;28;20037;-87
2022/07/21 05:26:16;;;;;;;17.73;14.48;;;;;;;;;;5298616;28;20023;-87
2022/07/21 05:28:53;;;;;;;;;;;;;;;;;;5290269;28;20510;-87
2022/07/21 05:31:28;;;;;;;18.98;15.75;;;;;;;;;;5274553;28;20068;-87
2022/07/21 05:34:07;;;;;;;16.05;13.57;;;;;;;;;;5284208;28;20039;-87
2022/07/21 05:36:48;;;;;;;14.35;12.88;;;;;;;;;;5266918;28;20103;-87
2022/07/21 05:39:20;;;;;;;16.73;12.55;;;;;;;;;;5265576;28;20025;-86
2022/07/21 05:41:51;;;;;;;15.68;13.02;;;;;;;;;;5247264;28;20029;-86
2022/07/21 05:44:25;;;;;;;18.02;13.70;;;;;;;;;;5285532;28;20044;-86
2022/07/21 05:50:36;;;;;;;17.58;13.50;;;;;;;;;;5298682;28;20032;-85
2022/07/21 05:53:32;;;;;;;;;;;;;;;;;;;;;
2022/07/21 05:56:04;;;;;;;18.27;14.20;;;;;;;;;;5289039;28;40805;-85
2022/07/21 06:01:44;;;;;;;19.80;15.38;;;;;;;;;;5273285;28;20036;-87
2022/07/21 06:04:24;;;;;;;20.57;15.77;;;;;;;;;;5275640;28;20035;-86
2022/07/21 06:06:56;;;;;;;22.33;16.35;;;;;;;;;;5294278;28;20263;-84
2022/07/21 06:09:30;;;;;;;24.20;16.73;;;;;;;;;;5285573;28;20519;-84
2022/07/21 06:12:01;;;;;;;19.80;15.52;;;;;;;;;;5275853;28;20275;-84
2022/07/21 06:14:32;;;;;;;24.35;16.98;;;;;;;;;;5272731;28;20083;-84
2022/07/21 06:17:04;;;;;;;25.25;17.40;;;;;;;;;;5276032;28;20041;-84
2022/07/21 06:19:35;;;;;;;21.90;17.90;;;;;;;;;;5295324;28;20049;-83
2022/07/21 06:22:06;;;;;;;23.92;17.95;;;;;;;;;;5295573;28;20041;-84
2022/07/21 06:24:37;;;;;;;20.60;16.73;;;;;;;;;;5295800;28;20020;-85
2022/07/21 06:27:09;;;;;;;29.83;18.00;;;;;;;;;;5302828;28;20296;-84
2022/07/21 06:29:40;;;;;;;22.95;18.60;;;;;;;;;;5304928;28;20208;-84
2022/07/21 06:32:11;;;;;;;24.10;18.80;;;;;;;;;;5295628;28;20025;-84
2022/07/21 06:34:42;;;;;;;22.13;17.60;;;;;;;;;;5273890;28;20033;-85
2022/07/21 06:37:13;;;;;;;25.53;18.47;;;;;;;;;;5290166;28;20029;-84
2022/07/21 06:39:44;;;;;;;23.50;17.77;;;;;;;;;;5290164;28;20251;-85
2022/07/21 06:42:16;;;;;;;22.45;16.80;;;;;;;;;;5263312;28;20029;-85
2022/07/21 06:44:47;;;;;;;26.47;17.80;;;;;;;;;;5283407;28;20033;-85
2022/07/21 06:47:18;;;;;;;22.77;16.90;;;;;;;;;;5279867;28;20029;-84
2022/07/21 06:49:49;;;;;;;25.43;17.23;;;;;;;;;;5277191;28;20291;-84
2022/07/21 06:52:21;;;;;;;28.53;17.93;;;;;;;;;;5282965;28;20025;-85
2022/07/21 06:54:52;;;;;;;25.13;17.33;;;;;;;;;;5280157;28;20280;-84
2022/07/21 06:57:23;;;;;;;30.57;19.03;;;;;;;;;;5273046;28;20033;-85
2022/07/21 06:59:54;;;;;;;20.77;17.33;;;;;;;;;;5284868;28;20164;-84
2022/07/21 07:02:25;;;;;;;20.93;17.13;;;;;;;;;;5287117;28;20106;-84
2022/07/21 07:04:57;;;;;;;24.40;19.07;;;;;;;;;;5260116;28;20097;-84
2022/07/21 07:07:30;;;;;;;23.53;19.20;;;;;;;;;;5285317;28;20492;-85
2022/07/21 07:10:02;;;;;;;23.85;18.75;;;;;;;;;;5294108;28;20036;-84
2022/07/21 07:12:33;;;;;;;26.23;19.50;;;;;;;;;;5270582;28;20056;-85
2022/07/21 07:15:05;;;;;;;25.25;18.73;;;;;;;;;;5282657;28;20421;-85
2022/07/21 07:17:36;;;;;;;32.00;17.92;;;;;;;;;;5280144;28;20040;-85
2022/07/21 07:20:08;;;;;;;25.00;18.05;;;;;;;;;;5279674;28;20077;-85
2022/07/21 07:22:39;;;;;;;24.73;18.52;;;;;;;;;;5287379;28;20082;-85
2022/07/21 07:25:10;;;;;;;22.10;19.37;;;;;;;;;;5281825;28;20019;-86
2022/07/21 07:27:41;;;;;;;26.10;19.17;;;;;;;;;;5280124;28;20028;-84
2022/07/21 07:30:13;;;;;;;25.02;19.50;;;;;;;;;;5284921;28;20272;-85
2022/07/21 07:32:46;;;;;;;24.98;19.05;;;;;;;;;;5264803;28;20037;-84
2022/07/21 07:35:21;;;;;;;26.60;17.95;;;;;;;;;;5264132;28;20112;-84
2022/07/21 07:37:53;;;;;;;26.92;19.75;;;;;;;;;;5271900;28;20025;-85
2022/07/21 07:40:24;;;;;;;29.43;20.17;;;;;;;;;;5289861;28;20029;-87
2022/07/21 07:42:55;;;;;;;21.17;18.48;;;;;;;;;;5265159;28;20334;-90
2022/07/21 07:45:27;;;;;;;28.00;20.80;;;;;;;;;;5289742;28;20483;-87
2022/07/21 07:47:58;;;;;;;23.75;20.88;;;;;;;;;;5279946;28;20032;-86
2022/07/21 07:50:29;;;;;;;25.27;20.20;;;;;;;;;;5266747;28;20045;-86
2022/07/21 07:53:02;;;;;;;22.23;17.98;;;;;;;;;;5285244;28;20052;-87
2022/07/21 07:55:36;;;;;;;25.33;20.10;;;;;;;;;;5283490;28;20405;-87
2022/07/21 07:58:07;;;;;;;18.25;15.45;;;;;;;;;;5284680;28;20035;-86
2022/07/21 08:00:39;;;;;;;19.53;16.00;;;;;;;;;;5251612;28;20009;-85
2022/07/21 08:03:10;;;;;;;17.70;15.90;;;;;;;;;;5288158;28;20025;-88
2022/07/21 08:05:42;;;;;;;17.20;15.47;;;;;;;;;;5275948;28;20279;-84
2022/07/21 08:08:13;;;;;;;17.48;15.68;;;;;;;;;;5289513;28;20033;-86
2022/07/21 08:10:45;;;;;;;20.05;15.95;;;;;;;;;;5304206;28;20025;-87
2022/07/21 08:13:17;;;;;;;17.40;15.65;;;;;;;;;;5269451;28;20029;-86
2022/07/21 08:15:48;;;;;;;17.65;14.70;;;;;;;;;;5279565;28;20303;-85
2022/07/21 08:18:20;;;;;;;15.55;14.05;;;;;;;;;;5282765;28;20042;-86
2022/07/21 08:20:51;;;;;;;16.10;14.00;;;;;;;;;;5261751;28;20044;-86
2022/07/21 08:23:22;;;;;;;14.55;12.88;;;;;;;;;;5263139;28;20695;-85
2022/07/21 08:25:53;;;;;;;14.40;12.32;;;;;;;;;;5280892;28;20006;-87
2022/07/21 08:28:25;;;;;;;15.20;13.60;;;;;;;;;;5283706;28;20082;-86
2022/07/21 08:30:56;;;;;;;18.13;13.82;;;;;;;;;;5266772;28;20321;-86
2022/07/21 08:33:27;;;;;;;19.23;14.10;;;;;;;;;;5285192;28;20037;-86
2022/07/21 08:35:58;;;;;;;16.77;14.48;;;;;;;;;;5294648;28;20270;-87
2022/07/21 08:38:30;;;;;;;16.07;14.53;;;;;;;;;;5268726;28;20025;-88
2022/07/21 08:41:01;;;;;;;15.77;14.13;;;;;;;;;;5282190;28;20284;-86
2022/07/21 08:43:32;;;;;;;15.88;14.38;;;;;;;;;;5276851;28;20029;-88
2022/07/21 08:46:07;;;;;;;18.27;16.20;;;;;;;;;;5291284;28;20133;-88
2022/07/21 08:48:39;;;;;;;17.38;15.57;;;;;;;;;;5252266;28;20061;-87
2022/07/21 08:51:10;;;;;;;18.77;16.88;;;;;;;;;;5282426;28;20071;-87
2022/07/21 08:53:45;;;;;;;19.13;15.57;;;;;;;;;;5280976;28;20021;-87
2022/07/21 08:56:16;;;;;;;20.95;16.65;;;;;;;;;;5270371;28;20024;-86
2022/07/21 08:58:47;;;;;;;21.15;18.02;;;;;;;;;;5280469;28;20045;-86
2022/07/21 09:01:26;;;;;;;19.10;17.20;;;;;;;;;;5296612;28;20016;-87
2022/07/21 09:04:17;;;;;;;21.40;19.02;;;;;;;;;;5279706;28;20071;-88
2022/07/21 09:06:53;;;;;;;19.52;17.48;;;;;;;;;;5287883;28;20083;-86
2022/07/21 09:09:28;;;;;;;20.37;18.17;;;;;;;;;;5305787;28;20078;-86
2022/07/21 09:12:03;;;;;;;20.90;18.13;;;;;;;;;;5276420;28;20295;-86
2022/07/21 09:14:35;;;;;;;17.88;16.10;;;;;;;;;;5269873;28;20029;-86
2022/07/21 09:17:06;;;;;;;18.10;16.20;;;;;;;;;;5284416;28;20032;-85
2022/07/21 09:19:38;;;;;;;18.10;16.38;;;;;;;;;;5282724;28;20473;-86
2022/07/21 09:22:16;;;;;;;17.83;16.08;;;;;;;;;;5283786;28;20017;-86
2022/07/21 09:24:52;;;;;;;18.25;16.20;;;;;;;;;;5282050;28;20110;-85
2022/07/21 09:27:24;;;;;;;17.33;15.60;;;;;;;;;;5266623;28;20025;-86
2022/07/21 09:29:59;;;;;;;19.27;17.20;;;;;;;;;;5266818;28;20520;-86
2022/07/21 09:32:36;;;;;;;16.90;15.38;;;;;;;;;;5265176;28;20048;-86
2022/07/21 09:35:09;;;;;;;;;;;;;;;;;;5268484;28;20060;-85
2022/07/21 09:37:44;;;;;;;13.82;12.52;;;;;;;;;;5281861;28;19909;-85
2022/07/21 09:40:17;;;;;;;12.80;11.70;;;;;;;;;;5265241;28;20025;-85
2022/07/21 09:42:50;;;;;;;13.00;11.90;;;;;;;;;;5270517;28;20045;-85
2022/07/21 09:45:21;;;;;;;10.63;9.55;;;;;;;;;;5263741;28;20072;-85
2022/07/21 09:47:52;;;;;;;11.65;9.02;;;;;;;;;;5266982;28;20029;-85
2022/07/21 09:50:24;;;;;;;8.70;7.90;;;;;;;;;;5275134;28;20139;-85
2022/07/21 09:52:57;;;;;;;9.60;8.27;;;;;;;;;;5268910;28;20025;-85
2022/07/21 09:55:30;;;;;;;9.95;8.57;;;;;;;;;;5268662;28;20021;-85
2022/07/21 09:58:02;;;;;;;8.68;7.95;;;;;;;;;;5266155;28;20040;-85
2022/07/21 10:00:33;;;;;;;9.68;8.82;;;;;;;;;;5286825;28;20029;-85
2022/07/21 10:03:08;;;;;;;9.93;8.93;;;;;;;;;;5266205;28;20117;-84
2022/07/21 10:05:42;;;;;;;10.10;9.10;;;;;;;;;;5265284;28;20045;-85
2022/07/21 10:08:13;;;;;;;11.88;10.35;;;;;;;;;;5265563;28;20167;-84
2022/07/21 10:10:45;;;;;;;12.52;10.85;;;;;;;;;;5283032;28;20096;-86
2022/07/21 10:13:16;;;;;;;14.70;13.20;;;;;;;;;;5265168;28;20020;-85
2022/07/21 10:15:48;;;;;;;14.43;13.13;;;;;;;;;;5265533;28;20041;-85
2022/07/21 10:18:22;;;;;;;15.10;13.70;;;;;;;;;;5265487;28;20144;-84
2022/07/21 10:21:01;;;;;;;14.50;13.10;;;;;;;;;;5265912;28;20114;-85
2022/07/21 10:23:42;;;;;;;12.75;11.55;;;;;;;;;;5274727;28;20523;-85
2022/07/21 10:26:14;;;;;;;13.20;11.98;;;;;;;;;;5252752;28;20033;-84
2022/07/21 10:28:45;;;;;;;12.50;11.38;;;;;;;;;;5263065;28;20600;-84
2022/07/21 10:31:18;;;;;;;13.27;11.97;;;;;;;;;;5265643;28;20013;-85
2022/07/21 10:33:49;;;;;;;15.57;13.70;;;;;;;;;;5267056;28;20628;-84
2022/07/21 10:36:27;;;;;;;13.70;12.40;;;;;;;;;;5244454;28;20033;-84
2022/07/21 10:39:10;;;;;;;13.50;12.25;;;;;;;;;;5243961;28;20371;-84
2022/07/21 10:41:45;;;;;;;13.38;12.07;;;;;;;;;;5249318;28;20063;-84
2022/07/21 10:44:32;;;;;;;13.77;12.48;;;;;;;;;;5264793;28;20072;-84
2022/07/21 10:47:05;;;;;;;13.38;11.68;;;;;;;;;;5265142;28;20037;-84
2022/07/21 10:49:50;;;;;;;12.25;10.98;;;;;;;;;;5264990;28;20171;-84
2022/07/21 10:52:39;;;;;;;12.73;10.13;;;;;;;;;;5258988;28;20465;-84
2022/07/21 10:55:26;;;;;;;10.68;9.48;;;;;;;;;;5264653;28;20025;-84
2022/07/21 10:58:14;;;;;;;11.57;10.30;;;;;;;;;;5264347;28;20025;-83
2022/07/21 11:00:45;;;;;;;14.95;9.90;;;;;;;;;;5265237;28;20059;-84
2022/07/21 11:03:20;;;;;;;13.63;10.17;;;;;;;;;;5283864;28;20075;-84
2022/07/21 11:06:10;;;;;;;13.90;9.73;;;;;;;;;;5263770;28;20318;-84
2022/07/21 11:08:46;;;;;;;11.30;9.63;;;;;;;;;;5264081;28;20127;-84
2022/07/21 11:11:20;;;;;;;14.35;10.68;;;;;;;;;;5264664;28;20335;-84
2022/07/21 11:14:11;;;;;;;9.82;8.82;;;;;;;;;;5264665;28;20036;-84
2022/07/21 11:16:43;;;;;;;11.48;8.88;;;;;;;;;;5264761;28;20079;-84
2022/07/21 11:19:39;;;;;;;10.63;7.72;;;;;;;;;;5264689;28;20084;-84
2022/07/21 11:22:12;;;;;;;10.60;8.80;;;;;;;;;;5264097;28;20124;-84
2022/07/21 11:24:45;;;;;;;10.45;8.00;;;;;;;;;;5264403;28;20492;-84
2022/07/21 11:27:17;;;;;;;10.27;8.48;;;;;;;;;;5264593;28;20033;-84
2022/07/21 11:29:50;;;;;;;15.15;8.13;;;;;;;;;;5264719;28;20033;-84
2022/07/21 11:32:21;;;;;;;9.70;8.63;;;;;;;;;;5263812;28;20023;-84
2022/07/21 11:34:56;;;;;;;13.63;8.88;;;;;;;;;;5282233;28;20056;-84
2022/07/21 11:37:35;;;;;;;11.73;8.40;;;;;;;;;;5264347;28;20017;-84
2022/07/21 11:40:27;;;;;;;10.13;8.38;;;;;;;;;;5282362;28;20036;-84
2022/07/21 11:42:58;;;;;;;12.05;8.35;;;;;;;;;;5263498;28;20044;-84
2022/07/21 11:45:30;;;;;;;10.77;8.35;;;;;;;;;;5264616;28;20464;-84
2022/07/21 11:48:02;;;;;;;9.70;8.73;;;;;;;;;;5282148;28;20029;-85
2022/07/21 11:50:33;;;;;;;13.70;8.38;;;;;;;;;;5263799;28;20025;-85
2022/07/21 11:53:06;;;;;;;9.13;8.25;;;;;;;;;;5262312;28;20025;-85
2022/07/21 11:55:37;;;;;;;10.60;9.38;;;;;;;;;;5244528;28;20029;-85
2022/07/21 11:58:13;;;;;;;14.30;10.65;;;;;;;;;;5264464;28;20463;-85
2022/07/21 12:00:46;;;;;;;11.48;10.35;;;;;;;;;;5263834;28;20511;-85
2022/07/21 12:03:17;;;;;;;11.02;9.90;;;;;;;;;;5263480;28;20547;-85
2022/07/21 12:05:48;;;;;;;15.40;11.90;;;;;;;;;;5262770;28;20029;-85
2022/07/21 12:08:20;;;;;;;13.20;11.82;;;;;;;;;;5279957;28;20361;-84
2022/07/21 12:10:51;;;;;;;14.18;12.73;;;;;;;;;;5264071;28;20075;-85
2022/07/21 12:13:22;;;;;;;15.50;14.13;;;;;;;;;;5263886;28;20024;-85
2022/07/21 12:15:55;;;;;;;16.23;14.10;;;;;;;;;;5282875;28;20439;-85
2022/07/21 12:18:26;;;;;;;14.88;13.43;;;;;;;;;;5266494;28;20184;-84
2022/07/21 12:21:02;;;;;;;15.65;14.13;;;;;;;;;;5260042;28;20116;-84
2022/07/21 12:23:34;;;;;;;12.30;11.23;;;;;;;;;;5242400;28;20513;-84
2022/07/21 12:26:05;;;;;;;12.85;11.73;;;;;;;;;;5279302;28;20021;-85
2022/07/21 12:28:52;;;;;;;14.38;11.13;;;;;;;;;;5263333;28;20528;-84
2022/07/21 12:31:26;;;;;;;12.98;11.88;;;;;;;;;;5263811;28;20095;-84
2022/07/21 12:34:09;;;;;;;13.43;11.57;;;;;;;;;;5261046;28;20026;-84
2022/07/21 12:36:43;;;;;;;11.52;10.35;;;;;;;;;;5262972;28;20029;-84
2022/07/21 12:39:55;;;;;;;10.88;9.77;;;;;;;;;;5262617;28;20084;-84
2022/07/21 12:42:08;;;;;;;10.65;9.65;;;;;;;;;;5267755;28;20029;-84
2022/07/21 12:44:40;;;;;;;12.00;9.55;;;;;;;;;;5266706;28;20064;-84
2022/07/21 12:47:16;;;;;;;10.02;9.20;;;;;;;;;;5267649;28;20449;-84
2022/07/21 12:49:54;;;;;;;8.35;7.47;;;;;;;;;;5285554;28;20032;-84
2022/07/21 12:52:26;;;;;;;9.02;7.95;;;;;;;;;;5267147;28;20025;-84
2022/07/21 12:54:58;;;;;;;9.15;8.30;;;;;;;;;;5266801;28;20025;-84
2022/07/21 12:57:30;;;;;;;7.93;7.05;;;;;;;;;;5283955;28;20035;-84
2022/07/21 13:00:03;;;;;;;9.98;6.88;;;;;;;;;;5266927;28;20446;-84
2022/07/21 13:02:47;;;;;;;7.00;5.78;;;;;;;;;;5285708;28;20056;-84
2022/07/21 13:05:19;;;;;;;13.50;7.95;;;;;;;;;;5262084;28;20384;-84
2022/07/21 13:07:53;;;;;;;10.43;6.35;;;;;;;;;;5264190;28;20026;-84
2022/07/21 13:10:24;;;;;;;7.07;5.93;;;;;;;;;;5263419;28;20481;-84
2022/07/21 13:12:56;;;;;;;6.57;5.22;;;;;;;;;;5267680;28;20048;-84
2022/07/21 13:15:27;;;;;;;6.28;5.40;;;;;;;;;;5265717;28;20568;-84
2022/07/21 13:17:58;;;;;;;5.85;5.15;;;;;;;;;;5284336;28;20128;-84
2022/07/21 13:20:30;;;;;;;7.18;5.90;;;;;;;;;;5266929;28;20429;-84
2022/07/21 13:23:01;;;;;;;7.03;5.43;;;;;;;;;;5268586;28;20050;-84
2022/07/21 13:25:32;;;;;;;6.33;4.80;;;;;;;;;;5260343;28;20087;-84
2022/07/21 13:28:03;;;;;;;6.38;5.00;;;;;;;;;;5284731;28;20333;-84
2022/07/21 13:30:35;;;;;;;5.88;4.72;;;;;;;;;;5266861;28;20029;-84
2022/07/21 13:33:06;;;;;;;5.45;4.93;;;;;;;;;;5266432;28;20029;-84
2022/07/21 13:35:40;;;;;;;5.53;5.03;;;;;;;;;;5283937;28;20021;-84
2022/07/21 13:38:11;;;;;;;5.63;4.82;;;;;;;;;;5265602;28;20255;-84
2022/07/21 13:40:43;;;;;;;7.40;5.32;;;;;;;;;;5284999;28;20462;-84
2022/07/21 13:43:17;;;;;;;7.72;5.85;;;;;;;;;;5267414;28;20025;-84
2022/07/21 13:45:48;;;;;;;5.85;4.60;;;;;;;;;;5265786;28;20035;-84
2022/07/21 13:48:19;;;;;;;6.30;5.68;;;;;;;;;;5265848;28;20104;-84
2022/07/21 13:50:51;;;;;;;6.45;5.13;;;;;;;;;;5266181;28;20385;-84
2022/07/21 13:53:22;;;;;;;5.57;4.47;;;;;;;;;;5262877;28;20102;-84
2022/07/21 13:55:53;;;;;;;6.40;5.23;;;;;;;;;;5245996;28;20037;-84
2022/07/21 13:58:27;;;;;;;5.80;4.87;;;;;;;;;;5264244;28;20271;-84
2022/07/21 14:00:58;;;;;;;6.72;5.68;;;;;;;;;;5245937;28;20268;-84
2022/07/21 14:03:30;;;;;;;5.18;4.68;;;;;;;;;;5267261;28;20116;-84
2022/07/21 14:06:01;;;;;;;8.90;5.80;;;;;;;;;;5259814;28;20030;-84
2022/07/21 14:08:32;;;;;;;6.10;5.13;;;;;;;;;;5261947;28;20748;-84
2022/07/21 14:11:04;;;;;;;6.25;5.68;;;;;;;;;;5252061;28;20195;-84
2022/07/21 14:13:36;;;;;;;8.25;5.47;;;;;;;;;;5284798;28;20100;-84
2022/07/21 14:16:10;;;;;;;6.75;6.05;;;;;;;;;;5285012;28;20574;-84
2022/07/21 14:18:41;;;;;;;7.78;6.07;;;;;;;;;;5266001;28;20498;-84
2022/07/21 14:21:13;;;;;;;8.25;6.43;;;;;;;;;;5266308;28;20029;-84
2022/07/21 14:23:44;;;;;;;8.73;5.65;;;;;;;;;;5271620;28;20033;-83
2022/07/21 14:26:15;;;;;;;7.67;6.23;;;;;;;;;;5297383;28;20036;-84
2022/07/21 14:28:46;;;;;;;11.20;6.57;;;;;;;;;;5278276;28;20259;-83
2022/07/21 14:31:17;;;;;;;9.95;6.50;;;;;;;;;;5269099;28;20283;-84
2022/07/21 14:33:49;;;;;;;9.77;6.97;;;;;;;;;;5271479;28;20049;-84
2022/07/21 14:36:20;;;;;;;9.77;7.53;;;;;;;;;;5265480;28;20296;-84
2022/07/21 14:38:51;;;;;;;11.17;7.03;;;;;;;;;;5252504;28;20357;-84
2022/07/21 14:41:22;;;;;;;9.45;7.28;;;;;;;;;;5264333;28;20319;-84
2022/07/21 14:43:54;;;;;;;13.25;8.13;;;;;;;;;;5265837;28;20409;-84
2022/07/21 14:46:25;;;;;;;12.45;8.32;;;;;;;;;;5284941;28;20140;-84
2022/07/21 14:48:56;;;;;;;13.18;9.10;;;;;;;;;;5279990;28;20397;-84
2022/07/21 14:51:27;;;;;;;15.05;10.57;;;;;;;;;;5265213;28;20160;-84
2022/07/21 14:53:59;;;;;;;16.27;11.95;;;;;;;;;;5282924;28;20040;-84
2022/07/21 14:56:30;;;;;;;15.07;11.77;;;;;;;;;;5266073;28;20098;-84
2022/07/21 14:59:01;;;;;;;14.82;9.73;;;;;;;;;;5265624;28;20275;-84
2022/07/21 15:01:32;;;;;;;12.15;10.77;;;;;;;;;;5265359;28;20037;-84
2022/07/21 15:04:07;;;;;;;12.93;11.60;;;;;;;;;;5283046;28;20037;-84
2022/07/21 15:06:38;;;;;;;15.30;12.05;;;;;;;;;;5264894;28;20481;-84